createdAt,value
2017-12-04T00:01:48.345Z,16.70
2017-12-04T00:04:17.964Z,17.60
2017-12-04T00:06:45.715Z,17.33
2017-12-04T00:09:15.199Z,17.27
2017-12-04T00:11:43.718Z,19.10
2017-12-04T00:14:11.643Z,18.17
2017-12-04T00:16:39.384Z,16.63
2017-12-04T00:19:08.038Z,15.77
2017-12-04T00:21:37.450Z,17.23
2017-12-04T00:24:05.349Z,16.80
2017-12-04T00:26:35.199Z,17.00
2017-12-04T00:29:03.846Z,17.90
2017-12-04T00:31:35.127Z,16.90
2017-12-04T00:34:02.818Z,16.87
2017-12-04T00:36:31.347Z,17.63
2017-12-04T00:38:58.989Z,16.80
2017-12-04T00:41:28.567Z,17.47
2017-12-04T00:43:58.209Z,15.73
2017-12-04T00:46:26.256Z,17.10
2017-12-04T00:48:54.177Z,17.17
2017-12-04T00:51:21.963Z,17.57
2017-12-04T00:53:50.910Z,17.73
2017-12-04T00:56:18.719Z,16.83
2017-12-04T00:58:46.391Z,18.30
2017-12-04T01:01:14.340Z,17.73
2017-12-04T01:03:42.237Z,18.57
2017-12-04T01:06:11.636Z,17.47
2017-12-04T01:08:39.369Z,17.03
2017-12-04T01:11:07.054Z,16.47
2017-12-04T01:13:35.128Z,16.13
2017-12-04T01:16:02.889Z,18.17
2017-12-04T01:18:30.554Z,18.00
2017-12-04T01:20:58.337Z,16.87
2017-12-04T01:23:27.946Z,18.03
2017-12-04T01:25:57.347Z,16.50
2017-12-04T01:28:25.201Z,15.93
2017-12-04T01:30:52.883Z,18.40
2017-12-04T01:33:21.561Z,17.63
2017-12-04T01:35:49.310Z,16.90
2017-12-04T01:38:17.058Z,17.57
2017-12-04T01:40:44.864Z,16.90
2017-12-04T01:43:14.417Z,17.10
2017-12-04T01:45:43.923Z,16.40
2017-12-04T01:48:11.699Z,18.13
2017-12-04T01:50:41.116Z,17.40
2017-12-04T01:53:09.753Z,16.20
2017-12-04T01:55:37.483Z,17.50
2017-12-04T01:58:07.336Z,17.60
2017-12-04T02:00:35.053Z,17.30
2017-12-04T02:03:02.885Z,16.90
2017-12-04T02:05:30.881Z,16.37
2017-12-04T02:08:01.405Z,18.53
2017-12-04T02:10:32.993Z,17.13
2017-12-04T02:13:00.733Z,16.87
2017-12-04T02:18:06.062Z,16.77
2017-12-04T02:20:36.361Z,18.07
2017-12-04T02:23:05.357Z,16.27
2017-12-04T02:25:34.681Z,16.43
2017-12-04T02:28:02.377Z,16.93
2017-12-04T02:30:30.105Z,18.53
2017-12-04T02:33:00.357Z,17.83
2017-12-04T02:35:28.210Z,18.37
2017-12-04T02:37:58.759Z,17.80
2017-12-04T02:40:26.479Z,16.20
2017-12-04T02:42:54.146Z,16.80
2017-12-04T02:45:21.840Z,17.50
2017-12-04T02:47:49.497Z,16.10
2017-12-04T02:50:17.267Z,16.90
2017-12-04T02:52:44.981Z,17.40
2017-12-04T02:55:12.781Z,17.67
2017-12-04T02:57:40.518Z,17.10
2017-12-04T03:00:08.221Z,17.50
2017-12-04T03:02:35.931Z,17.70
2017-12-04T03:05:05.384Z,18.23
2017-12-04T03:07:33.212Z,16.77
2017-12-04T03:10:00.884Z,16.90
2017-12-04T03:12:30.260Z,17.30
2017-12-04T03:14:58.845Z,15.87
2017-12-04T03:17:26.680Z,16.27
2017-12-04T03:19:56.080Z,17.60
2017-12-04T03:22:23.808Z,17.10
2017-12-04T03:24:51.556Z,18.00
2017-12-04T03:27:19.271Z,17.07
2017-12-04T03:29:46.975Z,16.60
2017-12-04T03:32:14.704Z,16.97
2017-12-04T03:34:44.311Z,16.57
2017-12-04T03:37:12.723Z,17.00
2017-12-04T03:39:40.392Z,16.07
2017-12-04T03:42:10.798Z,17.27
2017-12-04T03:44:38.504Z,15.40
2017-12-04T03:47:09.014Z,16.70
2017-12-04T03:49:36.942Z,17.10
2017-12-04T03:52:07.516Z,16.70
2017-12-04T03:54:35.186Z,16.60
2017-12-04T03:57:04.650Z,16.20
2017-12-04T03:59:32.388Z,15.73
2017-12-04T04:02:00.178Z,16.90
2017-12-04T04:04:27.914Z,16.43
2017-12-04T04:06:56.580Z,16.17
2017-12-04T04:09:26.388Z,15.10
2017-12-04T04:11:54.119Z,17.77
2017-12-04T04:14:22.015Z,16.93
2017-12-04T04:16:49.724Z,17.30
2017-12-04T04:19:17.434Z,15.87
2017-12-04T04:21:45.180Z,16.33
2017-12-04T04:24:13.234Z,16.03
2017-12-04T04:26:40.990Z,17.00
2017-12-04T04:29:11.424Z,17.90
2017-12-04T04:31:39.338Z,17.03
2017-12-04T04:34:07.977Z,14.80
2017-12-04T04:36:35.679Z,17.97
2017-12-04T04:39:05.122Z,17.10
2017-12-04T04:41:32.832Z,16.20
2017-12-04T04:44:00.512Z,16.73
2017-12-04T04:46:29.807Z,16.53
2017-12-04T04:48:57.530Z,17.23
2017-12-04T04:51:26.156Z,15.60
2017-12-04T04:53:55.608Z,16.73
2017-12-04T04:56:23.594Z,15.20
2017-12-04T04:58:53.451Z,15.40
2017-12-04T05:01:21.170Z,15.77
2017-12-04T05:03:48.848Z,17.23
2017-12-04T05:06:17.236Z,16.37
2017-12-04T05:08:46.588Z,15.77
2017-12-04T05:11:14.344Z,14.47
2017-12-04T05:13:42.266Z,15.43
2017-12-04T05:16:09.955Z,16.50
2017-12-04T05:18:37.659Z,17.03
2017-12-04T05:21:08.538Z,14.77
2017-12-04T05:23:36.432Z,16.77
2017-12-04T05:26:04.317Z,15.87
2017-12-04T05:28:32.001Z,16.27
2017-12-04T05:30:59.838Z,16.40
2017-12-04T05:33:28.422Z,16.20
2017-12-04T05:35:56.189Z,16.07
2017-12-04T05:38:23.839Z,14.80
2017-12-04T05:40:53.832Z,16.50
2017-12-04T05:43:21.576Z,16.10
2017-12-04T05:45:49.413Z,14.80
2017-12-04T05:48:17.178Z,17.13
2017-12-04T05:50:44.871Z,14.97
2017-12-04T05:53:12.784Z,14.90
2017-12-04T05:55:43.131Z,16.30
2017-12-04T05:58:12.811Z,15.90
2017-12-04T06:00:42.352Z,16.17
2017-12-04T06:03:12.671Z,15.90
2017-12-04T06:05:42.591Z,16.27
2017-12-04T06:08:12.059Z,15.70
2017-12-04T06:10:39.783Z,15.40
2017-12-04T06:13:09.095Z,15.60
2017-12-04T06:15:36.813Z,16.70
2017-12-04T06:18:06.273Z,15.47
2017-12-04T06:20:34.013Z,16.60
2017-12-04T06:23:01.877Z,16.00
2017-12-04T06:25:31.329Z,15.20
2017-12-04T06:27:59.987Z,16.43
2017-12-04T06:30:28.418Z,16.03
2017-12-04T06:32:58.249Z,15.60
2017-12-04T06:35:26.059Z,16.27
2017-12-04T06:37:55.470Z,15.60
2017-12-04T06:40:23.929Z,15.77
2017-12-04T06:42:51.747Z,15.50
2017-12-04T06:45:19.716Z,16.67
2017-12-04T06:47:50.260Z,16.30
2017-12-04T06:50:19.767Z,16.23
2017-12-04T06:52:49.165Z,16.03
2017-12-04T06:55:17.023Z,15.70
2017-12-04T06:57:44.699Z,15.27
2017-12-04T07:00:12.416Z,14.83
2017-12-04T07:02:41.912Z,16.60
2017-12-04T07:05:09.675Z,16.07
2017-12-04T07:07:40.737Z,16.13
2017-12-04T07:10:10.679Z,17.33
2017-12-04T07:12:41.977Z,15.37
2017-12-04T07:15:09.856Z,16.23
2017-12-04T07:17:37.750Z,16.10
2017-12-04T07:20:07.311Z,16.17
2017-12-04T07:22:36.905Z,15.90
2017-12-04T07:25:04.645Z,16.13
2017-12-04T07:27:32.496Z,17.63
2017-12-04T07:30:01.955Z,15.87
2017-12-04T07:32:29.740Z,16.70
2017-12-04T07:34:59.148Z,16.10
2017-12-04T07:37:28.837Z,17.43
2017-12-04T07:39:57.465Z,16.47
2017-12-04T07:42:25.165Z,15.40
2017-12-04T07:44:52.911Z,16.93
2017-12-04T07:47:20.830Z,14.50
2017-12-04T07:49:51.069Z,16.07
2017-12-04T07:52:18.765Z,15.13
2017-12-04T07:54:48.280Z,15.60
2017-12-04T07:57:16.761Z,15.60
2017-12-04T07:59:46.069Z,15.30
2017-12-04T08:02:16.421Z,14.70
2017-12-04T08:04:44.359Z,14.50
2017-12-04T08:07:12.047Z,15.93
2017-12-04T08:09:39.738Z,16.03
2017-12-04T08:12:07.397Z,16.17
2017-12-04T08:14:35.079Z,15.00
2017-12-04T08:17:02.725Z,15.13
2017-12-04T08:19:33.050Z,14.63
2017-12-04T08:22:02.470Z,16.30
2017-12-04T08:24:30.283Z,15.13
2017-12-04T08:26:58.877Z,15.50
2017-12-04T08:29:26.589Z,15.00
2017-12-04T08:31:54.324Z,14.20
2017-12-04T08:34:22.264Z,14.60
2017-12-04T08:36:51.574Z,12.83
2017-12-04T08:39:19.589Z,14.10
2017-12-04T08:41:48.047Z,14.10
2017-12-04T08:44:15.756Z,12.70
2017-12-04T08:46:45.180Z,13.60
2017-12-04T08:49:12.949Z,13.20
2017-12-04T08:51:43.329Z,15.20
2017-12-04T08:54:11.813Z,12.30
2017-12-04T08:56:39.673Z,12.30
2017-12-04T08:59:07.447Z,13.90
2017-12-04T09:01:38.774Z,12.97
2017-12-04T09:04:09.133Z,12.27
2017-12-04T09:06:37.729Z,12.67
2017-12-04T09:09:07.177Z,12.07
2017-12-04T09:11:34.967Z,12.33
2017-12-04T09:14:02.964Z,14.03
2017-12-04T09:16:32.585Z,12.17
2017-12-04T09:19:00.279Z,11.97
2017-12-04T09:21:27.976Z,12.40
2017-12-04T09:23:58.700Z,12.53
2017-12-04T09:26:26.465Z,12.53
2017-12-04T09:28:54.137Z,12.10
2017-12-04T09:31:22.057Z,11.90
2017-12-04T09:33:49.727Z,12.07
2017-12-04T09:36:20.083Z,12.40
2017-12-04T09:38:47.922Z,11.03
2017-12-04T09:41:17.232Z,12.03
2017-12-04T09:43:46.699Z,11.83
2017-12-04T09:46:16.230Z,10.77
2017-12-04T09:48:45.564Z,12.00
2017-12-04T09:51:13.436Z,11.80
2017-12-04T09:53:43.052Z,11.67
2017-12-04T09:56:11.627Z,11.30
2017-12-04T09:58:39.326Z,11.37
2017-12-04T10:01:08.924Z,11.00
2017-12-04T10:03:40.552Z,11.37
2017-12-04T10:06:08.299Z,11.43
2017-12-04T10:08:36.814Z,11.17
2017-12-04T10:11:04.490Z,11.90
2017-12-04T10:13:33.953Z,9.93
2017-12-04T10:16:01.854Z,12.37
2017-12-04T10:18:29.549Z,11.10
2017-12-04T10:20:59.424Z,10.60
2017-12-04T10:23:27.146Z,11.07
2017-12-04T10:25:54.814Z,11.03
2017-12-04T10:28:22.538Z,11.23
2017-12-04T10:30:50.349Z,10.90
2017-12-04T10:33:18.135Z,11.57
2017-12-04T10:35:45.810Z,11.00
2017-12-04T10:38:13.502Z,11.30
2017-12-04T10:40:42.086Z,10.90
2017-12-04T10:43:09.784Z,10.60
2017-12-04T10:45:38.237Z,10.90
2017-12-04T10:48:07.732Z,11.37
2017-12-04T10:50:35.470Z,11.80
2017-12-04T10:53:04.732Z,10.77
2017-12-04T10:55:32.664Z,10.60
2017-12-04T10:58:00.325Z,11.70
2017-12-04T11:00:28.120Z,10.67
2017-12-04T11:02:58.426Z,10.70
2017-12-04T11:05:26.146Z,10.63
2017-12-04T11:07:53.809Z,9.90
2017-12-04T11:10:21.581Z,10.40
2017-12-04T11:12:50.879Z,9.83
2017-12-04T11:15:18.642Z,10.13
2017-12-04T11:17:46.310Z,10.03
2017-12-04T11:20:13.981Z,9.47
2017-12-04T11:22:42.421Z,9.93
2017-12-04T11:25:12.877Z,9.77
2017-12-04T11:27:40.638Z,10.27
2017-12-04T11:30:08.397Z,9.57
2017-12-04T11:32:36.863Z,9.57
2017-12-04T11:35:04.574Z,9.30
2017-12-04T11:37:32.262Z,9.87
2017-12-04T11:40:00.095Z,10.70
2017-12-04T11:42:30.397Z,10.00
2017-12-04T11:44:59.720Z,10.23
2017-12-04T11:47:29.399Z,10.83
2017-12-04T11:49:57.558Z,10.83
2017-12-04T11:52:25.264Z,9.50
2017-12-04T11:54:53.003Z,9.33
2017-12-04T11:57:20.667Z,10.77
2017-12-04T11:59:48.328Z,10.60
2017-12-04T12:02:16.837Z,9.20
2017-12-04T12:04:44.578Z,9.70
2017-12-04T12:07:12.501Z,9.90
2017-12-04T12:09:42.401Z,10.73
2017-12-04T12:12:10.061Z,9.73
2017-12-04T12:14:38.545Z,8.97
2017-12-04T12:17:06.353Z,9.47
2017-12-04T12:19:34.038Z,10.10
2017-12-04T12:22:01.870Z,9.70
2017-12-04T12:24:29.784Z,9.73
2017-12-04T12:26:57.544Z,9.50
2017-12-04T12:29:25.365Z,9.67
2017-12-04T12:31:54.957Z,9.37
2017-12-04T12:34:24.416Z,10.23
2017-12-04T12:36:52.113Z,10.23
2017-12-04T12:39:21.508Z,9.30
2017-12-04T12:41:51.030Z,9.43
2017-12-04T12:44:19.443Z,9.80
2017-12-04T12:46:47.217Z,9.93
2017-12-04T12:49:14.869Z,9.73
2017-12-04T12:51:42.556Z,10.20
2017-12-04T12:54:12.238Z,9.93
2017-12-04T12:56:40.051Z,9.43
2017-12-04T12:59:10.358Z,9.73
2017-12-04T13:01:38.907Z,10.27
2017-12-04T13:04:08.862Z,9.40
2017-12-04T13:06:36.770Z,9.77
2017-12-04T13:09:04.422Z,9.13
2017-12-04T13:11:33.070Z,8.70
2017-12-04T13:14:00.938Z,9.70
2017-12-04T13:16:28.650Z,9.27
2017-12-04T13:18:58.621Z,9.23
2017-12-04T13:21:26.314Z,9.10
2017-12-04T13:23:53.988Z,10.47
2017-12-04T13:26:21.713Z,9.50
2017-12-04T13:28:50.098Z,9.43
2017-12-04T13:31:17.877Z,10.03
2017-12-04T13:34:00.273Z,9.23
2017-12-04T13:36:39.845Z,8.37
2017-12-04T13:39:07.633Z,8.37
2017-12-04T13:41:35.453Z,8.50
2017-12-04T13:44:03.107Z,9.23
2017-12-04T13:46:32.698Z,8.87
2017-12-04T13:49:03.171Z,8.13
2017-12-04T13:51:30.882Z,8.30
2017-12-04T13:54:01.516Z,9.27
2017-12-04T13:56:29.319Z,9.67
2017-12-04T13:58:57.060Z,8.60
2017-12-04T14:01:25.574Z,8.20
2017-12-04T14:03:54.940Z,9.00
2017-12-04T14:06:22.733Z,8.80
2017-12-04T14:08:52.551Z,8.33
2017-12-04T14:11:21.085Z,8.80
2017-12-04T14:13:51.466Z,7.47
2017-12-04T14:16:19.208Z,8.23
2017-12-04T14:18:47.066Z,7.50
2017-12-04T14:21:14.750Z,8.53
2017-12-04T14:23:43.255Z,8.43
2017-12-04T14:26:12.867Z,8.90
2017-12-04T14:28:40.619Z,9.23
2017-12-04T14:31:08.297Z,9.40
2017-12-04T14:33:37.734Z,9.37
2017-12-04T14:36:05.475Z,8.37
2017-12-04T14:38:35.095Z,8.70
2017-12-04T14:41:02.966Z,9.27
2017-12-04T14:43:31.383Z,7.90
2017-12-04T14:45:59.913Z,8.03
2017-12-04T14:48:27.707Z,7.90
2017-12-04T14:50:57.211Z,8.90
2017-12-04T14:53:26.818Z,8.90
2017-12-04T14:55:56.415Z,8.30
2017-12-04T14:58:25.003Z,8.50
2017-12-04T15:00:53.393Z,8.33
2017-12-04T15:03:21.192Z,7.93
2017-12-04T15:05:49.813Z,7.37
2017-12-04T15:08:17.517Z,8.60
2017-12-04T15:10:46.010Z,8.33
2017-12-04T15:13:13.704Z,8.83
2017-12-04T15:15:43.482Z,7.17
2017-12-04T15:18:11.200Z,7.93
2017-12-04T15:20:39.124Z,7.30
2017-12-04T15:23:06.978Z,8.53
2017-12-04T15:25:37.354Z,7.77
2017-12-04T15:28:07.749Z,7.20
2017-12-04T15:30:35.619Z,7.77
2017-12-04T15:33:05.991Z,8.27
2017-12-04T15:35:35.653Z,7.27
2017-12-04T15:38:03.524Z,7.33
2017-12-04T15:40:32.971Z,7.00
2017-12-04T15:43:00.884Z,8.00
2017-12-04T15:45:30.488Z,7.20
2017-12-04T15:47:59.042Z,8.20
2017-12-04T15:50:26.935Z,7.17
2017-12-04T15:52:56.400Z,7.93
2017-12-04T15:55:24.113Z,7.73
2017-12-04T15:57:53.614Z,8.27
2017-12-04T16:00:24.016Z,7.97
2017-12-04T16:02:53.338Z,8.70
2017-12-04T16:05:21.136Z,9.00
2017-12-04T16:07:50.444Z,8.43
2017-12-04T16:10:18.150Z,7.57
2017-12-04T16:12:45.832Z,8.70
2017-12-04T16:15:13.537Z,8.10
2017-12-04T16:17:41.285Z,8.30
2017-12-04T16:20:10.768Z,9.27
2017-12-04T16:22:40.399Z,9.20
2017-12-04T16:34:58.143Z,13.60
2017-12-04T16:37:27.494Z,10.17
2017-12-04T16:39:55.267Z,9.53
2017-12-04T16:42:23.794Z,8.70
2017-12-04T16:44:52.601Z,9.97
2017-12-04T16:47:22.141Z,9.40
2017-12-04T16:49:51.595Z,9.10
2017-12-04T16:52:20.138Z,8.27
2017-12-04T16:54:50.449Z,8.30
2017-12-04T16:57:20.767Z,9.50
2017-12-04T16:59:48.875Z,8.30
2017-12-04T17:02:16.630Z,8.40
2017-12-04T17:04:46.073Z,8.63
2017-12-04T17:07:14.130Z,8.33
2017-12-04T17:09:42.088Z,8.63
2017-12-04T17:12:10.534Z,8.03
2017-12-04T17:14:40.271Z,8.33
2017-12-04T17:17:09.092Z,7.90
2017-12-04T17:19:36.903Z,7.47
2017-12-04T17:22:04.585Z,7.13
2017-12-04T17:24:32.249Z,8.10
2017-12-04T17:27:00.289Z,7.70
2017-12-04T17:29:28.486Z,8.90
2017-12-04T17:31:58.241Z,7.43
2017-12-04T17:34:27.888Z,7.63
2017-12-04T17:36:55.809Z,7.53
2017-12-04T17:39:25.371Z,7.17
2017-12-04T17:41:54.925Z,7.63
2017-12-04T17:44:22.644Z,8.37
2017-12-04T17:46:50.408Z,8.73
2017-12-04T17:49:18.475Z,8.00
2017-12-04T17:51:47.243Z,7.87
2017-12-04T17:54:15.635Z,7.83
2017-12-04T17:56:44.317Z,8.17
2017-12-04T17:59:12.895Z,8.03
2017-12-04T18:01:41.347Z,9.00
2017-12-04T18:04:09.240Z,7.63
2017-12-04T18:06:40.151Z,8.13
2017-12-04T18:09:09.787Z,7.87
2017-12-04T18:11:37.631Z,8.10
2017-12-04T18:14:07.894Z,8.30
2017-12-04T18:16:35.716Z,7.63
2017-12-04T18:19:03.511Z,9.93
2017-12-04T18:21:31.242Z,9.23
2017-12-04T18:23:59.070Z,8.17
2017-12-04T18:26:27.832Z,9.70
2017-12-04T18:28:55.590Z,7.73
2017-12-04T18:31:23.392Z,7.97
2017-12-04T18:33:51.240Z,7.73
2017-12-04T18:36:20.870Z,6.50
2017-12-04T18:38:48.863Z,8.27
2017-12-04T18:41:18.480Z,6.83
2017-12-04T18:43:46.283Z,9.23
2017-12-04T18:46:15.826Z,6.83
2017-12-04T18:48:43.722Z,7.60
2017-12-04T18:51:13.646Z,6.80
2017-12-04T18:53:43.367Z,6.80
2017-12-04T18:56:11.338Z,6.87
2017-12-04T18:58:39.198Z,6.70
2017-12-04T19:01:06.987Z,6.97
2017-12-04T19:03:34.710Z,7.13
2017-12-04T19:06:02.418Z,7.47
2017-12-04T19:08:30.289Z,8.60
2017-12-04T19:10:58.767Z,8.20
2017-12-04T19:13:26.567Z,8.40
2017-12-04T19:15:56.802Z,8.53
2017-12-04T19:18:27.215Z,9.10
2017-12-04T19:20:55.079Z,8.67
2017-12-04T19:23:25.414Z,8.20
2017-12-04T19:25:54.473Z,8.70
2017-12-04T19:28:22.681Z,9.03
2017-12-04T19:30:50.910Z,8.87
2017-12-04T19:33:18.930Z,8.13
2017-12-04T19:35:46.886Z,8.90
2017-12-04T19:38:15.630Z,9.47
2017-12-04T19:40:43.653Z,8.20
2017-12-04T19:43:13.135Z,8.43
2017-12-04T19:45:41.353Z,8.70
2017-12-04T19:48:10.099Z,9.10
2017-12-04T19:50:38.033Z,9.17
2017-12-04T19:53:06.730Z,8.57
2017-12-04T19:55:36.494Z,10.50
2017-12-04T19:58:04.412Z,9.40
2017-12-04T20:00:33.585Z,9.90
2017-12-04T20:03:01.558Z,9.50
2017-12-04T20:05:29.651Z,9.60
2017-12-04T20:07:58.420Z,9.20
2017-12-04T20:10:26.577Z,9.17
2017-12-04T20:12:57.060Z,9.37
2017-12-04T20:15:24.956Z,9.17
2017-12-04T20:17:53.626Z,9.10
2017-12-04T20:20:23.565Z,8.20
2017-12-04T20:22:52.554Z,7.00
2017-12-04T20:25:21.399Z,7.53
2017-12-04T20:27:49.901Z,8.63
2017-12-04T20:30:17.937Z,8.50
2017-12-04T20:32:45.988Z,8.57
2017-12-04T20:35:13.752Z,8.23
2017-12-04T20:37:41.824Z,7.70
2017-12-04T20:40:12.302Z,8.63
2017-12-04T20:42:40.230Z,9.70
2017-12-04T20:45:08.160Z,8.67
2017-12-04T20:47:36.782Z,9.00
2017-12-04T20:50:04.865Z,8.50
2017-12-04T20:52:35.193Z,9.80
2017-12-04T20:55:04.029Z,9.60
2017-12-04T20:57:32.077Z,9.77
2017-12-04T21:00:01.638Z,9.60
2017-12-04T21:02:31.350Z,9.93
2017-12-04T21:04:59.970Z,10.20
2017-12-04T21:07:29.422Z,10.97
2017-12-04T21:10:09.032Z,11.23
2017-12-04T21:12:36.745Z,10.77
2017-12-04T21:15:18.079Z,11.60
2017-12-04T21:17:45.816Z,11.50
2017-12-04T21:20:13.518Z,11.80
2017-12-04T21:22:43.578Z,11.23
2017-12-04T21:25:11.370Z,12.00
2017-12-04T21:27:39.126Z,12.00
2017-12-04T21:30:07.048Z,12.23
2017-12-04T21:32:34.796Z,11.50
2017-12-04T21:35:04.096Z,11.40
2017-12-04T21:37:31.846Z,12.03
2017-12-04T21:40:01.259Z,12.20
2017-12-04T21:42:28.981Z,12.37
2017-12-04T21:44:59.632Z,12.30
2017-12-04T21:47:27.759Z,12.20
2017-12-04T21:49:56.011Z,11.77
2017-12-04T21:52:23.717Z,11.50
2017-12-04T21:54:51.831Z,12.07
2017-12-04T21:57:19.665Z,10.63
2017-12-04T21:59:47.491Z,11.63
2017-12-04T22:02:15.978Z,12.30
2017-12-04T22:04:44.463Z,12.00
2017-12-04T22:07:13.896Z,12.13
2017-12-04T22:09:42.615Z,11.50
2017-12-04T22:12:11.923Z,12.30
2017-12-04T22:14:41.392Z,11.57
2017-12-04T22:17:09.847Z,11.80
2017-12-04T22:19:37.521Z,12.63
2017-12-04T22:22:06.842Z,13.43
2017-12-04T22:24:34.555Z,12.73
2017-12-04T22:27:02.332Z,12.93
2017-12-04T22:29:29.979Z,13.40
2017-12-04T22:31:57.670Z,13.60
2017-12-04T22:34:25.366Z,14.37
2017-12-04T22:36:53.034Z,14.70
2017-12-04T22:39:20.772Z,13.43
2017-12-04T22:41:48.548Z,14.17
2017-12-04T22:44:16.248Z,14.23
2017-12-04T22:46:44.091Z,14.33
2017-12-04T22:49:11.853Z,14.97
2017-12-04T22:51:39.543Z,14.63
2017-12-04T22:54:08.135Z,13.70
2017-12-04T22:56:36.004Z,13.83
2017-12-04T22:59:05.421Z,13.57
2017-12-04T23:01:34.793Z,13.53
2017-12-04T23:04:05.135Z,14.13
2017-12-04T23:06:33.131Z,13.77
2017-12-04T23:09:02.929Z,15.30
2017-12-04T23:24:31.527Z,13.17
2017-12-04T23:27:00.046Z,14.53
2017-12-04T23:29:28.579Z,16.07
2017-12-04T23:31:56.438Z,14.50
2017-12-04T23:34:24.117Z,13.90
2017-12-04T23:36:51.910Z,13.87
2017-12-04T23:39:19.576Z,13.27
2017-12-04T23:41:47.414Z,13.27
2017-12-04T23:44:16.921Z,12.90
2017-12-04T23:46:45.396Z,13.20
2017-12-04T23:49:13.086Z,12.77
2017-12-04T23:51:43.378Z,13.93
2017-12-04T23:54:12.808Z,12.17
2017-12-04T23:56:40.813Z,12.17
2017-12-04T23:59:08.473Z,13.67
